Meteo Giornale » Osservazioni meteo Spagna » Leon-Virgen Del Camino
ore: 21:00 - Osservazioni Meteo Leon-Virgen Del Camino
Lat. 42° 35' N Lon. 5° 39' W Alt. 926 metri s.l.m.
23 °C
Sereno
Temp. 24 Ore
8 °C
27 °C
Nord
5.5 Km/h
Dew point 3 °C
Umidità 26 %
Visibilità 10 Km
Il sole sorge alle ore 07:47
Il sole tramonta alle ore 20:57
| Data e Ora | Cielo e Fenomeni | T °C | DP °C | Um. % | Pres. hPa | Vis. km | Vento km/h | |
|---|---|---|---|---|---|---|---|---|
| Oggi h: 21:00 | Sereno | 23 | 3 | 26 | 1022 | 10 | N 5.5 | |
| Oggi h: 20:30 | Sereno | 25 | 3 | 23 | 1022 | 10 | SE 7.4 | |
| Oggi h: 20:00 | Sereno | 25 | 3 | 23 | 1021 | 10 | SE 13 | |
| Oggi h: 19:30 | Sereno | 26 | 2 | 20 | 1021 | 10 | SE 14.8 | |
| Oggi h: 19:00 | Sereno | 26 | 2 | 20 | 1021 | 10 | SE 16.7 | |
| Oggi h: 18:30 | Sereno | 26 | 4 | 24 | 1021 | 10 | SE 13 | |
| Oggi h: 18:00 | Sereno | 26 | 5 | 25 | 1021 | 10 | SE 9.3 | |
| Oggi h: 17:30 | Sereno | 27 | 2 | 19 | 1021 | 10 | S/SO 9.3 | |
| Oggi h: 17:00 | Sereno | 26 | 4 | 24 | 1021 | 10 | E 11.1 | |
| Oggi h: 16:30 | Sereno | 25 | 5 | 27 | 1021 | 10 | E 11.1 | |
| Oggi h: 16:00 | Sereno | 25 | 7 | 31 | 1021 | 10 | E 11.1 | |
| Oggi h: 15:30 | Sereno | 26 | 6 | 27 | 1022 | 10 | O/NO 9.3 | |
| Oggi h: 15:00 | Sereno | 25 | 6 | 29 | 1022 | 10 | NO 7.4 | |
| Oggi h: 14:30 | Sereno | 25 | 6 | 29 | 1022 | 10 | S/SO 13 | |
| Oggi h: 14:00 | Sereno | 25 | 7 | 31 | 1022 | 10 | S/SO 9.3 | |
| Oggi h: 13:30 | Sereno | 23 | 7 | 35 | 1022 | 10 | S 7.4 | |
| Oggi h: 13:00 | Sereno | 23 | 8 | 38 | 1022 | 10 | N 5.5 | |
| Oggi h: 12:30 | Sereno | 22 | 7 | 37 | 1023 | 10 | N 3.7 | |
| Oggi h: 12:00 | Sereno | 21 | 7 | 40 | 1023 | 10 | N 3.7 | |
| Oggi h: 11:30 | Sereno | 20 | 8 | 45 | 1023 | 10 | N 3.7 | |
| Oggi h: 11:00 | Sereno | 19 | 10 | 55 | 1022 | 10 | N 1.8 | |
| Oggi h: 10:30 | Sereno | 17 | 10 | 63 | 1022 | 10 | N 1.8 | |
| Oggi h: 10:00 | Sereno | 15 | 10 | 72 | 1022 | 10 | N 3.7 | |
| Oggi h: 09:30 | Sereno | 15 | 10 | 72 | 1022 | 10 | N 1.8 | |
| Oggi h: 09:00 | Sereno | 13 | 9 | 76 | 1022 | 10 | N 1.8 | |
| Oggi h: 08:30 | Sereno | 11 | 9 | 87 | 1022 | 10 | N 0 | |
| Oggi h: 08:00 | Sereno | 10 | 8 | 87 | 1022 | 10 | N 3.7 | |
| Oggi h: 07:30 | Sereno | 10 | 8 | 87 | 1022 | 9 | N 1.8 | |
| Oggi h: 07:00 | Sereno | 9 | 7 | 87 | 1022 | 10 | N 3.7 | |
| Oggi h: 06:30 | Sereno | 11 | 8 | 81 | 1022 | 10 | N 7.4 | |
| Oggi h: 06:00 | Sereno | 10 | 8 | 87 | 1022 | 10 | N/NO 9.3 | |
| Oggi h: 05:30 | Sereno | 11 | 8 | 81 | 1022 | 10 | N/NO 9.3 | |
| Oggi h: 05:00 | Sereno | 12 | 8 | 76 | 1022 | 10 | N/NO 11.1 | |
| Oggi h: 04:30 | Sereno | 12 | 8 | 76 | 1023 | 10 | N 9.3 | |
| Oggi h: 04:00 | Sereno | 11 | 8 | 81 | 1023 | 10 | N 7.4 | |
| Oggi h: 03:30 | Sereno | 11 | 8 | 81 | 1023 | 10 | N/NO 9.3 | |
| Oggi h: 03:00 | Sereno | 10 | 8 | 87 | 1023 | 10 | N 5.5 | |
| Oggi h: 02:30 | Sereno | 8 | 6 | 87 | 1023 | 10 | N 0 | |
| Oggi h: 02:00 | Sereno | 10 | 7 | 81 | 1023 | 10 | N 3.7 | |
| Oggi h: 01:30 | Sereno | 9 | 6 | 81 | 1023 | 10 | N 3.7 | |
| Oggi h: 01:00 | Sereno | 14 | 8 | 67 | 1023 | 10 | N/NO 9.3 | |
| Oggi h: 00:30 | Sereno | 14 | 7 | 62 | 1023 | 10 | N 9.3 | |
| Oggi h: 00:00 | Sereno | 15 | 7 | 58 | 1023 | 10 | N 9.3 | |
| Ieri h: 23:30 | Sereno | 14 | 7 | 62 | 1023 | 10 | E 11.1 | |
| Ieri h: 23:00 | Sereno | 14 | 7 | 62 | 1022 | 10 | N 11.1 | |
| Ieri h: 22:30 | Sereno | 15 | 7 | 58 | 1022 | 10 | O/NO 9.3 | |
| Ieri h: 22:00 | Sereno | 14 | 7 | 62 | 1022 | 10 | O/NO 7.4 | |



